Centaurus — CUFE6 — position and weather

sailwx.info

Track history (hours):
 
Tides and Currents Weather Stations Pressure Air Temp Water Temp Dewpoint Dewpoint Depression Visibility Wind Speed Wind Dir Waves Ship Positions

Centaurus

Last reported at 2017-Sep-19 17:00 UTC. Time now 2017-Sep-19 17:21 UTC.
Position N 37°08' W 008°32'.

; draft 3.5 m.

Type: Fishing. MMSI: 263410940.

Date/timePositionNaut miles runAvg speedWind from/ knotsBaromVisibWave heightAir tempDewpointWater temp
2017-Sep-19 17:00N 37°08' W 008°32'0 0.0
2017-Sep-19 16:30N 37°08' W 008°32'0 0.0
2017-Sep-19 16:00N 37°08' W 008°32'0 0.0
2017-Sep-19 15:30N 37°08' W 008°32'0 0.0
2017-Sep-19 15:00N 37°08' W 008°32'0 0.0
2017-Sep-19 14:30N 37°08' W 008°32'0 0.0
2017-Sep-19 14:00N 37°08' W 008°32'0 0.0
2017-Sep-19 13:30N 37°08' W 008°32'0 0.0
2017-Sep-19 13:00N 37°08' W 008°32'3 5.6
2017-Sep-19 12:30N 37°05' W 008°33'510.7
2017-Sep-19 12:00N 37°02' W 008°38'7 0.5
2017-Sep-18 22:09N 37°07' W 008°32'1 7.0
2017-Sep-18 22:00N 37°08' W 008°32'0 0.2
2017-Sep-18 21:30N 37°08' W 008°32'0 0.0
2017-Sep-18 21:00N 37°08' W 008°32'0 0.0
2017-Sep-18 20:30N 37°08' W 008°32'0 0.0
2017-Sep-18 20:00N 37°08' W 008°32'0 0.0
2017-Sep-18 19:30N 37°08' W 008°32'0 0.0
2017-Sep-18 19:00N 37°08' W 008°32'0 0.0
2017-Sep-18 18:30N 37°08' W 008°32'0 0.0
2017-Sep-18 18:00N 37°08' W 008°32'0 0.0
2017-Sep-18 17:30N 37°08' W 008°32'0 0.0
2017-Sep-18 17:00N 37°08' W 008°32'0 0.0
2017-Sep-18 16:30N 37°08' W 008°32'0 0.0
2017-Sep-18 16:00N 37°08' W 008°32'0 0.0
2017-Sep-18 15:30N 37°08' W 008°32'0 0.0
2017-Sep-18 15:00N 37°08' W 008°32'0 0.0
2017-Sep-18 14:30N 37°08' W 008°32'0 0.0
2017-Sep-18 14:00N 37°08' W 008°32'0 0.0
2017-Sep-18 13:30N 37°08' W 008°32'0 0.0
2017-Sep-18 13:00N 37°08' W 008°32'0 0.0
2017-Sep-18 12:30N 37°08' W 008°32'0 0.0
2017-Sep-18 12:00N 37°08' W 008°32'5 9.1
2017-Sep-18 11:30N 37°03' W 008°32'4 0.4
2017-Sep-18 02:44N 37°07' W 008°32'1 4.5
2017-Sep-18 02:30N 37°08' W 008°32'0 0.0
2017-Sep-18 02:00N 37°08' W 008°32'0 0.0
2017-Sep-18 01:30N 37°08' W 008°32'0 0.0
2017-Sep-18 01:00N 37°08' W 008°32'0 0.0
2017-Sep-18 00:30N 37°08' W 008°32'0 0.0
2017-Sep-18 00:00N 37°08' W 008°32'0 0.0
2017-Sep-17 23:30N 37°08' W 008°32'0 0.0
2017-Sep-17 23:00N 37°08' W 008°32'0 0.0
2017-Sep-17 22:30N 37°08' W 008°32'0 0.0
2017-Sep-17 22:00N 37°08' W 008°32'0 0.0
2017-Sep-17 21:30N 37°08' W 008°32'0 0.0
2017-Sep-17 20:51N 37°08' W 008°32'0 1.1
2017-Sep-17 20:25N 37°07' W 008°32'4 9.7
2017-Sep-17 19:59N 37°03' W 008°31'22 0.5
2017-Sep-16 03:24N 36°60' W 008°59'4 9.2
2017-Sep-16 03:00N 36°60' W 008°54'510.3
2017-Sep-16 02:30N 37°01' W 008°48'510.5
2017-Sep-16 02:00N 37°03' W 008°42'510.3
2017-Sep-16 01:30N 37°05' W 008°36'4 9.0
2017-Sep-16 01:00N 37°08' W 008°32'0 0.6
2017-Sep-16 00:30N 37°08' W 008°32'0 0.0
2017-Sep-16 00:00N 37°08' W 008°32'0 0.0
2017-Sep-15 23:30N 37°08' W 008°32'0 0.0
2017-Sep-15 23:00N 37°08' W 008°32'0 0.0
2017-Sep-15 22:30N 37°08' W 008°32'0 0.0
2017-Sep-15 22:00N 37°08' W 008°32'0 0.0
2017-Sep-15 21:30N 37°08' W 008°32'0 0.0
2017-Sep-15 21:00N 37°08' W 008°32'0 0.0
2017-Sep-15 20:30N 37°08' W 008°32'0 0.0
2017-Sep-15 20:00N 37°08' W 008°32'0 0.0
2017-Sep-15 19:30N 37°08' W 008°32'0 0.0
2017-Sep-15 19:00N 37°08' W 008°32'0 0.0
2017-Sep-15 18:30N 37°08' W 008°32'0 0.0
2017-Sep-15 18:00N 37°08' W 008°32'0 0.0
2017-Sep-15 17:30N 37°08' W 008°32'0 0.0
2017-Sep-15 17:00N 37°08' W 008°32'0 0.0
2017-Sep-15 16:30N 37°08' W 008°32'0 0.0
2017-Sep-15 16:00N 37°08' W 008°32'0 0.0
2017-Sep-15 15:30N 37°08' W 008°32'0 0.0
2017-Sep-15 15:00N 37°08' W 008°32'0 0.0
2017-Sep-15 14:30N 37°08' W 008°32'1 2.0
2017-Sep-15 14:00N 37°07' W 008°31'5 9.8
2017-Sep-15 13:30N 37°02' W 008°31'510.0
2017-Sep-15 13:00N 36°57' W 008°31'11 0.8
2017-Sep-14 23:36N 37°08' W 008°32'0 0.1
2017-Sep-14 23:29N 37°08' W 008°32'0 0.0
2017-Sep-14 22:55N 37°08' W 008°32'0 0.0
2017-Sep-14 22:27N 37°08' W 008°32'0 0.0
2017-Sep-14 21:50N 37°08' W 008°32'0 0.0
2017-Sep-14 21:30N 37°08' W 008°32'0 0.0
2017-Sep-14 21:01N 37°08' W 008°32'0 0.0
2017-Sep-14 20:31N 37°08' W 008°32'0 0.0
2017-Sep-14 20:01N 37°08' W 008°32'0 0.0
2017-Sep-14 19:30N 37°08' W 008°32'0 0.0
2017-Sep-14 18:58N 37°08' W 008°32'0 0.0
2017-Sep-14 18:30N 37°08' W 008°32'0 0.0
2017-Sep-14 17:56N 37°08' W 008°32'0 0.0
2017-Sep-14 17:30N 37°08' W 008°32'0 0.0
2017-Sep-14 17:00N 37°08' W 008°32'0 0.0
2017-Sep-14 16:30N 37°08' W 008°32'0 0.0
2017-Sep-14 16:01N 37°08' W 008°32'0 0.0
2017-Sep-14 15:31N 37°08' W 008°32'0 0.0
2017-Sep-14 15:00N 37°08' W 008°32'0 0.0
2017-Sep-14 14:31N 37°08' W 008°32'0 0.0
2017-Sep-14 14:01N 37°08' W 008°32'0 0.0
2017-Sep-14 13:31N 37°08' W 008°32'0 0.0
2017-Sep-14 13:00N 37°08' W 008°32'0 0.0
2017-Sep-14 12:30N 37°08' W 008°32'3 5.7
2017-Sep-14 12:00N 37°05' W 008°32'510.8
2017-Sep-14 11:31N 37°00' W 008°36'510.7
2017-Sep-14 11:01N 36°56' W 008°39'7 0.7
2017-Sep-13 23:47N 36°60' W 008°31'1 4.3
2017-Sep-13 23:30N 37°00' W 008°33'7 1.8
2017-Sep-13 19:39N 37°07' W 008°32'1 5.1
2017-Sep-13 19:30N 37°08' W 008°32'0 0.0
2017-Sep-13 18:54N 37°08' W 008°32'0 0.0
2017-Sep-13 18:30N 37°08' W 008°32'0 0.0
2017-Sep-13 18:00N 37°08' W 008°32'0 0.0
2017-Sep-13 17:30N 37°08' W 008°32'0 0.0
2017-Sep-13 16:59N 37°08' W 008°32'0 0.0
2017-Sep-13 16:29N 37°08' W 008°32'0 0.0
2017-Sep-13 16:00N 37°08' W 008°32'0 0.0
2017-Sep-13 15:30N 37°08' W 008°32'0 0.0
2017-Sep-13 15:00N 37°08' W 008°32'0 0.0
2017-Sep-13 14:30N 37°08' W 008°32'0 0.0
2017-Sep-13 13:58N 37°08' W 008°32'0 0.0
2017-Sep-13 13:30N 37°08' W 008°32'2 3.6
2017-Sep-13 13:00N 37°06' W 008°32'510.5
2017-Sep-13 12:30N 37°01' W 008°33'5 9.2
2017-Sep-13 11:59N 36°57' W 008°35'11 0.7
2017-Sep-12 21:04N 37°07' W 008°32'1 8.0
2017-Sep-12 21:00N 37°07' W 008°32'0 1.0
2017-Sep-12 20:30N 37°08' W 008°32'0 0.0
2017-Sep-12 20:00N 37°08' W 008°32'0 0.0
2017-Sep-12 19:30N 37°08' W 008°32'0 0.0
2017-Sep-12 19:00N 37°08' W 008°32'0 0.0
2017-Sep-12 18:30N 37°08' W 008°32'0 0.0
2017-Sep-12 18:00N 37°08' W 008°32'0 0.0
2017-Sep-12 17:30N 37°08' W 008°32'0 0.0
2017-Sep-12 17:00N 37°08' W 008°32'0 0.0
2017-Sep-12 16:30N 37°08' W 008°32'0 0.0
2017-Sep-12 16:00N 37°08' W 008°32'0 0.0
2017-Sep-12 15:30N 37°08' W 008°32'0 0.0
2017-Sep-12 15:00N 37°08' W 008°32'0 0.0
2017-Sep-12 14:30N 37°08' W 008°32'0 0.0
2017-Sep-12 14:00N 37°08' W 008°32'2 4.6
2017-Sep-12 13:30N 37°06' W 008°32'510.6
2017-Sep-12 13:00N 37°01' W 008°34'6 0.7
2017-Sep-12 04:16N 36°55' W 008°37'310.1
2017-Sep-12 04:00N 36°57' W 008°36'510.2
2017-Sep-12 03:31N 37°02' W 008°34'  
Track history (hours):
 
Tides and Currents Weather Stations Pressure Air Temp Water Temp Dewpoint Dewpoint Depression Visibility Wind Speed Wind Dir Waves Ship Positions

Centaurus

Last reported at 2017-Sep-19 17:00 UTC. Time now 2017-Sep-19 17:21 UTC.
Position N 37°08' W 008°32'.

; draft 3.5 m.

Type: Fishing. MMSI: 263410940.

Date/timePositionNaut miles runAvg speedWind from/ knotsBaromVisibWave heightAir tempDewpointWater temp
2017-Sep-19 17:00N 37°08' W 008°32'0 0.0
2017-Sep-19 16:30N 37°08' W 008°32'0 0.0
2017-Sep-19 16:00N 37°08' W 008°32'0 0.0
2017-Sep-19 15:30N 37°08' W 008°32'0 0.0
2017-Sep-19 15:00N 37°08' W 008°32'0 0.0
2017-Sep-19 14:30N 37°08' W 008°32'0 0.0
2017-Sep-19 14:00N 37°08' W 008°32'0 0.0
2017-Sep-19 13:30N 37°08' W 008°32'0 0.0
2017-Sep-19 13:00N 37°08' W 008°32'3 5.6
2017-Sep-19 12:30N 37°05' W 008°33'510.7
2017-Sep-19 12:00N 37°02' W 008°38'7 0.5
2017-Sep-18 22:09N 37°07' W 008°32'1 7.0
2017-Sep-18 22:00N 37°08' W 008°32'0 0.2
2017-Sep-18 21:30N 37°08' W 008°32'0 0.0
2017-Sep-18 21:00N 37°08' W 008°32'0 0.0
2017-Sep-18 20:30N 37°08' W 008°32'0 0.0
2017-Sep-18 20:00N 37°08' W 008°32'0 0.0
2017-Sep-18 19:30N 37°08' W 008°32'0 0.0
2017-Sep-18 19:00N 37°08' W 008°32'0 0.0
2017-Sep-18 18:30N 37°08' W 008°32'0 0.0
2017-Sep-18 18:00N 37°08' W 008°32'0 0.0
2017-Sep-18 17:30N 37°08' W 008°32'0 0.0
2017-Sep-18 17:00N 37°08' W 008°32'0 0.0
2017-Sep-18 16:30N 37°08' W 008°32'0 0.0
2017-Sep-18 16:00N 37°08' W 008°32'0 0.0
2017-Sep-18 15:30N 37°08' W 008°32'0 0.0
2017-Sep-18 15:00N 37°08' W 008°32'0 0.0
2017-Sep-18 14:30N 37°08' W 008°32'0 0.0
2017-Sep-18 14:00N 37°08' W 008°32'0 0.0
2017-Sep-18 13:30N 37°08' W 008°32'0 0.0
2017-Sep-18 13:00N 37°08' W 008°32'0 0.0
2017-Sep-18 12:30N 37°08' W 008°32'0 0.0
2017-Sep-18 12:00N 37°08' W 008°32'5 9.1
2017-Sep-18 11:30N 37°03' W 008°32'4 0.4
2017-Sep-18 02:44N 37°07' W 008°32'1 4.5
2017-Sep-18 02:30N 37°08' W 008°32'0 0.0
2017-Sep-18 02:00N 37°08' W 008°32'0 0.0
2017-Sep-18 01:30N 37°08' W 008°32'0 0.0
2017-Sep-18 01:00N 37°08' W 008°32'0 0.0
2017-Sep-18 00:30N 37°08' W 008°32'0 0.0
2017-Sep-18 00:00N 37°08' W 008°32'0 0.0
2017-Sep-17 23:30N 37°08' W 008°32'0 0.0
2017-Sep-17 23:00N 37°08' W 008°32'0 0.0
2017-Sep-17 22:30N 37°08' W 008°32'0 0.0
2017-Sep-17 22:00N 37°08' W 008°32'0 0.0
2017-Sep-17 21:30N 37°08' W 008°32'0 0.0
2017-Sep-17 20:51N 37°08' W 008°32'0 1.1
2017-Sep-17 20:25N 37°07' W 008°32'4 9.7
2017-Sep-17 19:59N 37°03' W 008°31'22 0.5
2017-Sep-16 03:24N 36°60' W 008°59'4 9.2
2017-Sep-16 03:00N 36°60' W 008°54'510.3
2017-Sep-16 02:30N 37°01' W 008°48'510.5
2017-Sep-16 02:00N 37°03' W 008°42'510.3
2017-Sep-16 01:30N 37°05' W 008°36'4 9.0
2017-Sep-16 01:00N 37°08' W 008°32'0 0.6
2017-Sep-16 00:30N 37°08' W 008°32'0 0.0
2017-Sep-16 00:00N 37°08' W 008°32'0 0.0
2017-Sep-15 23:30N 37°08' W 008°32'0 0.0
2017-Sep-15 23:00N 37°08' W 008°32'0 0.0
2017-Sep-15 22:30N 37°08' W 008°32'0 0.0
2017-Sep-15 22:00N 37°08' W 008°32'0 0.0
2017-Sep-15 21:30N 37°08' W 008°32'0 0.0
2017-Sep-15 21:00N 37°08' W 008°32'0 0.0
2017-Sep-15 20:30N 37°08' W 008°32'0 0.0
2017-Sep-15 20:00N 37°08' W 008°32'0 0.0
2017-Sep-15 19:30N 37°08' W 008°32'0 0.0
2017-Sep-15 19:00N 37°08' W 008°32'0 0.0
2017-Sep-15 18:30N 37°08' W 008°32'0 0.0
2017-Sep-15 18:00N 37°08' W 008°32'0 0.0
2017-Sep-15 17:30N 37°08' W 008°32'0 0.0
2017-Sep-15 17:00N 37°08' W 008°32'0 0.0
2017-Sep-15 16:30N 37°08' W 008°32'0 0.0
2017-Sep-15 16:00N 37°08' W 008°32'0 0.0
2017-Sep-15 15:30N 37°08' W 008°32'0 0.0
2017-Sep-15 15:00N 37°08' W 008°32'0 0.0
2017-Sep-15 14:30N 37°08' W 008°32'1 2.0
2017-Sep-15 14:00N 37°07' W 008°31'5 9.8
2017-Sep-15 13:30N 37°02' W 008°31'510.0
2017-Sep-15 13:00N 36°57' W 008°31'11 0.8
2017-Sep-14 23:36N 37°08' W 008°32'0 0.1
2017-Sep-14 23:29N 37°08' W 008°32'0 0.0
2017-Sep-14 22:55N 37°08' W 008°32'0 0.0
2017-Sep-14 22:27N 37°08' W 008°32'0 0.0
2017-Sep-14 21:50N 37°08' W 008°32'0 0.0
2017-Sep-14 21:30N 37°08' W 008°32'0 0.0
2017-Sep-14 21:01N 37°08' W 008°32'0 0.0
2017-Sep-14 20:31N 37°08' W 008°32'0 0.0
2017-Sep-14 20:01N 37°08' W 008°32'0 0.0
2017-Sep-14 19:30N 37°08' W 008°32'0 0.0
2017-Sep-14 18:58N 37°08' W 008°32'0 0.0
2017-Sep-14 18:30N 37°08' W 008°32'0 0.0
2017-Sep-14 17:56N 37°08' W 008°32'0 0.0
2017-Sep-14 17:30N 37°08' W 008°32'0 0.0
2017-Sep-14 17:00N 37°08' W 008°32'0 0.0
2017-Sep-14 16:30N 37°08' W 008°32'0 0.0
2017-Sep-14 16:01N 37°08' W 008°32'0 0.0
2017-Sep-14 15:31N 37°08' W 008°32'0 0.0
2017-Sep-14 15:00N 37°08' W 008°32'0 0.0
2017-Sep-14 14:31N 37°08' W 008°32'0 0.0
2017-Sep-14 14:01N 37°08' W 008°32'0 0.0
2017-Sep-14 13:31N 37°08' W 008°32'0 0.0
2017-Sep-14 13:00N 37°08' W 008°32'0 0.0
2017-Sep-14 12:30N 37°08' W 008°32'3 5.7
2017-Sep-14 12:00N 37°05' W 008°32'510.8
2017-Sep-14 11:31N 37°00' W 008°36'510.7
2017-Sep-14 11:01N 36°56' W 008°39'7 0.7
2017-Sep-13 23:47N 36°60' W 008°31'1 4.3
2017-Sep-13 23:30N 37°00' W 008°33'7 1.8
2017-Sep-13 19:39N 37°07' W 008°32'1 5.1
2017-Sep-13 19:30N 37°08' W 008°32'0 0.0
2017-Sep-13 18:54N 37°08' W 008°32'0 0.0
2017-Sep-13 18:30N 37°08' W 008°32'0 0.0
2017-Sep-13 18:00N 37°08' W 008°32'0 0.0
2017-Sep-13 17:30N 37°08' W 008°32'0 0.0
2017-Sep-13 16:59N 37°08' W 008°32'0 0.0
2017-Sep-13 16:29N 37°08' W 008°32'0 0.0
2017-Sep-13 16:00N 37°08' W 008°32'0 0.0
2017-Sep-13 15:30N 37°08' W 008°32'0 0.0
2017-Sep-13 15:00N 37°08' W 008°32'0 0.0
2017-Sep-13 14:30N 37°08' W 008°32'0 0.0
2017-Sep-13 13:58N 37°08' W 008°32'0 0.0
2017-Sep-13 13:30N 37°08' W 008°32'2 3.6
2017-Sep-13 13:00N 37°06' W 008°32'510.5
2017-Sep-13 12:30N 37°01' W 008°33'5 9.2
2017-Sep-13 11:59N 36°57' W 008°35'11 0.7
2017-Sep-12 21:04N 37°07' W 008°32'1 8.0
2017-Sep-12 21:00N 37°07' W 008°32'0 1.0
2017-Sep-12 20:30N 37°08' W 008°32'0 0.0
2017-Sep-12 20:00N 37°08' W 008°32'0 0.0
2017-Sep-12 19:30N 37°08' W 008°32'0 0.0
2017-Sep-12 19:00N 37°08' W 008°32'0 0.0
2017-Sep-12 18:30N 37°08' W 008°32'0 0.0
2017-Sep-12 18:00N 37°08' W 008°32'0 0.0
2017-Sep-12 17:30N 37°08' W 008°32'0 0.0
2017-Sep-12 17:00N 37°08' W 008°32'0 0.0
2017-Sep-12 16:30N 37°08' W 008°32'0 0.0
2017-Sep-12 16:00N 37°08' W 008°32'0 0.0
2017-Sep-12 15:30N 37°08' W 008°32'0 0.0
2017-Sep-12 15:00N 37°08' W 008°32'0 0.0
2017-Sep-12 14:30N 37°08' W 008°32'0 0.0
2017-Sep-12 14:00N 37°08' W 008°32'2 4.6
2017-Sep-12 13:30N 37°06' W 008°32'510.6
2017-Sep-12 13:00N 37°01' W 008°34'6 0.7
2017-Sep-12 04:16N 36°55' W 008°37'310.1
2017-Sep-12 04:00N 36°57' W 008°36'510.2
2017-Sep-12 03:31N 37°02' W 008°34'  

Dump ship's entire track history